createdAt,value
2024-02-13T10:14:04.348Z,0.63
2024-02-13T10:19:07.307Z,0.20
2024-02-13T10:24:13.277Z,0.22
2024-02-13T10:29:15.549Z,5.10
2024-02-13T10:34:20.283Z,0.00
2024-02-13T10:39:23.886Z,0.10
2024-02-13T10:44:27.467Z,0.30
2024-02-13T10:49:44.194Z,0.75
2024-02-13T10:58:48.032Z,0.17
2024-02-13T11:03:51.743Z,0.82
2024-02-13T11:08:55.215Z,0.20
2024-02-13T11:13:58.673Z,0.28
2024-02-13T11:19:04.488Z,4.25
2024-02-13T11:24:07.065Z,0.38
2024-02-13T11:29:23.900Z,2.00
2024-02-13T11:34:42.541Z,3.22
2024-02-13T11:39:51.866Z,3.83
2024-02-13T11:44:54.406Z,1.25
2024-02-13T11:49:57.053Z,1.67
2024-02-13T11:54:59.876Z,0.77
2024-02-13T12:00:20.371Z,0.43
2024-02-13T12:05:37.934Z,0.85
2024-02-13T12:10:40.088Z,5.75
2024-02-13T12:15:43.293Z,4.18
2024-02-13T12:20:51.147Z,2.92
2024-02-13T12:26:03.292Z,3.95
2024-02-13T12:31:09.245Z,2.65
2024-02-13T12:36:20.250Z,0.52
2024-02-13T12:41:22.544Z,0.82
2024-02-13T12:46:29.015Z,2.33
2024-02-13T12:51:32.894Z,3.53
2024-02-13T12:56:35.331Z,8.18
2024-02-13T13:01:39.581Z,9.15
2024-02-13T13:06:42.373Z,19.67
2024-02-13T13:11:44.556Z,7.47
2024-02-13T13:16:46.773Z,11.68
2024-02-13T13:21:48.825Z,8.98
2024-02-13T13:26:51.727Z,13.02
2024-02-13T13:31:54.018Z,11.65
2024-02-13T13:36:56.375Z,12.57
2024-02-13T13:42:05.627Z,14.05
2024-02-13T13:52:11.695Z,19.27
2024-02-13T13:57:13.925Z,17.67
2024-02-13T14:02:16.657Z,9.55
2024-02-13T14:07:20.574Z,22.73
2024-02-13T14:12:23.350Z,18.95
2024-02-13T14:17:25.297Z,16.15
2024-02-13T14:22:28.149Z,27.63
2024-02-13T14:27:30.103Z,20.27
2024-02-13T14:32:32.101Z,19.60
2024-02-13T14:37:34.978Z,13.82
2024-02-13T14:42:36.935Z,20.88
2024-02-13T14:47:40.396Z,25.50
2024-02-13T14:52:42.931Z,14.10
2024-02-13T14:57:52.355Z,12.60
2024-02-13T15:03:02.948Z,26.92
2024-02-13T15:08:05.391Z,15.95
2024-02-13T15:13:08.093Z,19.83
2024-02-13T15:18:10.087Z,12.77
2024-02-13T15:23:14.105Z,23.02
2024-02-13T15:28:20.103Z,21.75
2024-02-13T15:33:22.968Z,26.00
2024-02-13T15:38:43.790Z,21.77
2024-02-13T15:44:07.427Z,24.35
2024-02-13T15:49:12.925Z,28.10
2024-02-13T15:54:16.949Z,29.92
2024-02-13T15:59:20.278Z,36.30
2024-02-13T16:04:22.236Z,27.20
2024-02-13T16:09:26.777Z,26.98
2024-02-13T16:14:32.241Z,30.38
2024-02-13T16:19:34.381Z,34.55
2024-02-13T16:24:38.490Z,33.00
2024-02-13T16:29:41.252Z,43.47
2024-02-13T16:34:44.839Z,58.47
2024-02-13T16:39:48.877Z,33.05
2024-02-13T16:44:52.372Z,28.52
2024-02-13T16:49:55.595Z,46.40
2024-02-13T16:54:57.902Z,42.22
2024-02-13T17:00:04.323Z,41.42
2024-02-13T17:05:15.503Z,38.78
2024-02-13T17:10:21.612Z,41.15
2024-02-13T17:15:23.510Z,35.08
2024-02-13T17:20:35.025Z,51.05
2024-02-13T17:25:39.815Z,41.33
2024-02-13T17:30:43.917Z,61.53
2024-02-13T17:35:47.472Z,57.30
2024-02-13T17:40:49.446Z,38.78
2024-02-13T17:45:52.520Z,46.78
2024-02-13T17:50:54.432Z,54.42
2024-02-13T17:55:56.454Z,47.25
2024-02-13T18:00:59.819Z,48.75
2024-02-13T18:06:03.258Z,57.22
2024-02-13T18:11:08.589Z,61.17
2024-02-13T18:16:11.722Z,60.80
2024-02-13T18:21:13.788Z,65.13
2024-02-13T18:26:22.169Z,61.45
2024-02-13T18:31:25.267Z,67.73
2024-02-13T18:36:28.919Z,68.13
2024-02-13T18:41:30.896Z,56.90
2024-02-13T18:46:33.194Z,76.78
2024-02-13T18:51:35.243Z,48.40
2024-02-13T18:56:40.140Z,48.83
2024-02-13T19:01:46.043Z,53.05
2024-02-13T19:06:50.349Z,55.58
2024-02-13T19:11:53.677Z,54.05
2024-02-13T19:16:55.966Z,53.85
2024-02-13T19:21:58.135Z,39.45
2024-02-13T19:27:00.160Z,45.92
2024-02-13T19:32:02.159Z,32.35
2024-02-13T19:37:04.264Z,47.88
2024-02-13T19:42:06.168Z,37.58
2024-02-13T19:47:08.132Z,50.22
2024-02-13T19:52:30.846Z,39.78
2024-02-13T19:57:54.711Z,41.20
2024-02-13T20:03:16.576Z,31.58
2024-02-13T20:08:40.122Z,40.97
2024-02-13T20:13:42.356Z,39.53
2024-02-13T20:18:45.768Z,37.85
2024-02-13T20:23:48.241Z,32.72
2024-02-13T20:28:50.271Z,34.58
2024-02-13T20:33:52.998Z,36.60
2024-02-13T20:38:55.060Z,54.05
2024-02-13T20:43:56.951Z,49.83
2024-02-13T20:49:02.871Z,52.22
2024-02-13T20:54:07.074Z,45.03
2024-02-13T20:59:09.645Z,30.85
2024-02-13T21:04:11.792Z,36.00
2024-02-13T21:09:14.705Z,35.35
2024-02-13T21:14:16.690Z,37.97
2024-02-13T21:19:18.777Z,30.17
2024-02-13T21:24:21.929Z,44.20
2024-02-13T21:29:23.964Z,28.23
2024-02-13T21:34:29.725Z,25.05
2024-02-13T21:39:33.306Z,31.50
2024-02-13T21:44:35.449Z,31.08
2024-02-13T21:49:37.673Z,25.48
2024-02-13T21:54:40.462Z,36.80
2024-02-13T21:59:42.558Z,26.52
2024-02-13T22:04:44.747Z,36.33
2024-02-13T22:09:47.035Z,30.05
2024-02-13T22:14:49.039Z,32.28
2024-02-13T22:19:51.037Z,12.02
2024-02-13T22:24:52.902Z,10.57
2024-02-13T22:29:58.741Z,16.63
2024-02-13T22:35:00.981Z,18.75
2024-02-13T22:40:03.756Z,18.25
2024-02-13T22:45:07.148Z,19.33
2024-02-13T22:50:09.860Z,10.50
2024-02-13T22:55:11.737Z,7.72
2024-02-13T23:00:34.100Z,14.77
2024-02-13T23:05:36.651Z,20.40
2024-02-13T23:10:39.246Z,17.48
2024-02-13T23:15:41.405Z,9.35
2024-02-13T23:20:44.624Z,14.82
2024-02-13T23:25:46.969Z,21.05
2024-02-13T23:30:49.083Z,23.70
2024-02-13T23:35:50.995Z,14.88
2024-02-13T23:40:53.031Z,25.55
2024-02-13T23:45:56.035Z,14.20
2024-02-13T23:50:57.942Z,24.42
2024-02-13T23:56:00.719Z,20.13
